sensor_id;sensor_type;location;lat;lon;timestamp;temperature;humidity
9446;DHT22;4761;49.490;10.908;2023-05-14T00:00:13;19.70;51.30
9446;DHT22;4761;49.490;10.908;2023-05-14T00:02:39;19.70;51.30
9446;DHT22;4761;49.490;10.908;2023-05-14T00:05:06;19.60;51.20
9446;DHT22;4761;49.490;10.908;2023-05-14T00:07:31;19.70;51.20
9446;DHT22;4761;49.490;10.908;2023-05-14T00:09:57;19.60;51.20
9446;DHT22;4761;49.490;10.908;2023-05-14T00:12:23;19.60;51.20
9446;DHT22;4761;49.490;10.908;2023-05-14T00:14:48;19.60;51.20
9446;DHT22;4761;49.490;10.908;2023-05-14T00:17:14;19.60;51.10
9446;DHT22;4761;49.490;10.908;2023-05-14T00:19:40;19.60;51.10
9446;DHT22;4761;49.490;10.908;2023-05-14T00:22:07;19.60;51.10
9446;DHT22;4761;49.490;10.908;2023-05-14T00:24:33;19.60;51.10
9446;DHT22;4761;49.490;10.908;2023-05-14T00:26:59;19.60;51.10
9446;DHT22;4761;49.490;10.908;2023-05-14T00:29:25;19.60;51.10
9446;DHT22;4761;49.490;10.908;2023-05-14T00:31:50;19.60;51.10
9446;DHT22;4761;49.490;10.908;2023-05-14T00:34:16;19.60;51.10
9446;DHT22;4761;49.490;10.908;2023-05-14T00:36:41;19.60;51.10
9446;DHT22;4761;49.490;10.908;2023-05-14T00:39:07;19.60;51.10
9446;DHT22;4761;49.490;10.908;2023-05-14T00:41:32;19.60;51.10
9446;DHT22;4761;49.490;10.908;2023-05-14T00:43:58;19.60;51.10
9446;DHT22;4761;49.490;10.908;2023-05-14T00:46:24;19.60;51.10
9446;DHT22;4761;49.490;10.908;2023-05-14T00:48:49;19.60;51.00
9446;DHT22;4761;49.490;10.908;2023-05-14T00:51:16;19.60;51.00
9446;DHT22;4761;49.490;10.908;2023-05-14T00:53:42;19.60;51.00
9446;DHT22;4761;49.490;10.908;2023-05-14T00:56:07;19.60;51.00
9446;DHT22;4761;49.490;10.908;2023-05-14T00:58:33;19.60;51.00
9446;DHT22;4761;49.490;10.908;2023-05-14T01:00:59;19.60;51.00
9446;DHT22;4761;49.490;10.908;2023-05-14T01:03:24;19.60;51.10
9446;DHT22;4761;49.490;10.908;2023-05-14T01:06:14;19.60;51.00
9446;DHT22;4761;49.490;10.908;2023-05-14T01:09:07;19.60;51.10
9446;DHT22;4761;49.490;10.908;2023-05-14T01:12:07;19.60;51.00
9446;DHT22;4761;49.490;10.908;2023-05-14T01:14:58;19.60;51.10
9446;DHT22;4761;49.490;10.908;2023-05-14T01:17:28;19.60;51.00
9446;DHT22;4761;49.490;10.908;2023-05-14T01:19:55;19.60;50.90
9446;DHT22;4761;49.490;10.908;2023-05-14T01:22:21;19.70;50.90
9446;DHT22;4761;49.490;10.908;2023-05-14T01:24:46;19.70;50.90
9446;DHT22;4761;49.490;10.908;2023-05-14T01:27:34;19.80;50.70
9446;DHT22;4761;49.490;10.908;2023-05-14T01:32:39;19.80;50.50
9446;DHT22;4761;49.490;10.908;2023-05-14T01:35:07;19.70;50.50
9446;DHT22;4761;49.490;10.908;2023-05-14T01:37:34;19.80;50.60
9446;DHT22;4761;49.490;10.908;2023-05-14T01:40:00;19.80;50.70
9446;DHT22;4761;49.490;10.908;2023-05-14T01:42:27;19.70;50.60
9446;DHT22;4761;49.490;10.908;2023-05-14T01:44:53;19.70;50.60
9446;DHT22;4761;49.490;10.908;2023-05-14T01:47:19;19.70;50.70
9446;DHT22;4761;49.490;10.908;2023-05-14T01:49:44;19.70;50.70
9446;DHT22;4761;49.490;10.908;2023-05-14T01:52:10;19.70;50.80
9446;DHT22;4761;49.490;10.908;2023-05-14T01:54:36;19.70;50.80
9446;DHT22;4761;49.490;10.908;2023-05-14T01:57:01;19.70;50.80
9446;DHT22;4761;49.490;10.908;2023-05-14T01:59:27;19.80;50.80
9446;DHT22;4761;49.490;10.908;2023-05-14T02:01:54;19.70;50.70
9446;DHT22;4761;49.490;10.908;2023-05-14T02:04:19;19.70;50.80
9446;DHT22;4761;49.490;10.908;2023-05-14T02:06:45;19.80;50.80
9446;DHT22;4761;49.490;10.908;2023-05-14T02:09:10;19.70;50.70
9446;DHT22;4761;49.490;10.908;2023-05-14T02:11:36;19.70;50.70
9446;DHT22;4761;49.490;10.908;2023-05-14T02:14:02;19.70;50.70
9446;DHT22;4761;49.490;10.908;2023-05-14T02:16:27;19.80;50.80
9446;DHT22;4761;49.490;10.908;2023-05-14T02:18:53;19.70;50.70
9446;DHT22;4761;49.490;10.908;2023-05-14T02:21:18;19.70;50.70
9446;DHT22;4761;49.490;10.908;2023-05-14T02:23:44;19.70;50.80
9446;DHT22;4761;49.490;10.908;2023-05-14T02:26:11;19.70;50.80
9446;DHT22;4761;49.490;10.908;2023-05-14T02:28:36;19.70;50.80
9446;DHT22;4761;49.490;10.908;2023-05-14T02:31:02;19.70;50.80
9446;DHT22;4761;49.490;10.908;2023-05-14T02:33:27;19.70;50.80
9446;DHT22;4761;49.490;10.908;2023-05-14T02:35:53;19.70;50.80
9446;DHT22;4761;49.490;10.908;2023-05-14T02:38:19;19.70;50.80
9446;DHT22;4761;49.490;10.908;2023-05-14T02:40:44;19.70;50.90
9446;DHT22;4761;49.490;10.908;2023-05-14T02:43:10;19.70;50.90
9446;DHT22;4761;49.490;10.908;2023-05-14T02:45:35;19.70;50.90
9446;DHT22;4761;49.490;10.908;2023-05-14T02:48:01;19.70;50.90
9446;DHT22;4761;49.490;10.908;2023-05-14T02:50:27;19.70;51.00
9446;DHT22;4761;49.490;10.908;2023-05-14T02:52:52;19.70;51.00
9446;DHT22;4761;49.490;10.908;2023-05-14T02:55:18;19.70;51.00
9446;DHT22;4761;49.490;10.908;2023-05-14T02:57:43;19.70;51.70
9446;DHT22;4761;49.490;10.908;2023-05-14T03:00:10;19.70;51.10
9446;DHT22;4761;49.490;10.908;2023-05-14T03:02:36;19.70;51.10
9446;DHT22;4761;49.490;10.908;2023-05-14T03:05:01;19.70;51.10
9446;DHT22;4761;49.490;10.908;2023-05-14T03:07:27;19.70;51.10
9446;DHT22;4761;49.490;10.908;2023-05-14T03:09:53;19.70;51.00
9446;DHT22;4761;49.490;10.908;2023-05-14T03:12:19;19.70;51.00
9446;DHT22;4761;49.490;10.908;2023-05-14T03:14:45;19.70;51.00
9446;DHT22;4761;49.490;10.908;2023-05-14T03:17:11;19.70;51.10
9446;DHT22;4761;49.490;10.908;2023-05-14T03:19:36;19.70;51.10
9446;DHT22;4761;49.490;10.908;2023-05-14T03:22:02;19.70;51.00
9446;DHT22;4761;49.490;10.908;2023-05-14T03:24:27;19.70;51.00
9446;DHT22;4761;49.490;10.908;2023-05-14T03:26:53;19.70;51.00
9446;DHT22;4761;49.490;10.908;2023-05-14T03:29:18;19.70;51.00
9446;DHT22;4761;49.490;10.908;2023-05-14T03:31:44;19.70;51.00
9446;DHT22;4761;49.490;10.908;2023-05-14T03:34:10;19.70;51.00
9446;DHT22;4761;49.490;10.908;2023-05-14T03:36:35;19.70;51.10
9446;DHT22;4761;49.490;10.908;2023-05-14T03:39:03;19.70;51.10
9446;DHT22;4761;49.490;10.908;2023-05-14T03:41:31;19.70;51.10
9446;DHT22;4761;49.490;10.908;2023-05-14T03:43:56;19.70;51.10
9446;DHT22;4761;49.490;10.908;2023-05-14T03:46:22;19.60;51.10
9446;DHT22;4761;49.490;10.908;2023-05-14T03:48:47;19.70;51.20
9446;DHT22;4761;49.490;10.908;2023-05-14T03:51:13;19.70;51.20
9446;DHT22;4761;49.490;10.908;2023-05-14T03:53:38;19.70;51.20
9446;DHT22;4761;49.490;10.908;2023-05-14T03:56:04;19.70;51.20
9446;DHT22;4761;49.490;10.908;2023-05-14T03:58:29;19.60;51.20
9446;DHT22;4761;49.490;10.908;2023-05-14T04:00:55;19.70;51.30
9446;DHT22;4761;49.490;10.908;2023-05-14T04:03:21;19.70;51.30
9446;DHT22;4761;49.490;10.908;2023-05-14T04:05:46;19.60;51.30
9446;DHT22;4761;49.490;10.908;2023-05-14T04:08:12;19.60;51.30
9446;DHT22;4761;49.490;10.908;2023-05-14T04:10:37;19.60;51.30
9446;DHT22;4761;49.490;10.908;2023-05-14T04:13:03;19.60;51.30
9446;DHT22;4761;49.490;10.908;2023-05-14T04:15:28;19.70;51.40
9446;DHT22;4761;49.490;10.908;2023-05-14T04:17:54;19.60;51.30
9446;DHT22;4761;49.490;10.908;2023-05-14T04:20:19;19.70;51.40
9446;DHT22;4761;49.490;10.908;2023-05-14T04:22:45;19.70;51.40
9446;DHT22;4761;49.490;10.908;2023-05-14T04:25:10;19.70;51.40
9446;DHT22;4761;49.490;10.908;2023-05-14T04:27:36;19.70;51.30
9446;DHT22;4761;49.490;10.908;2023-05-14T04:30:01;19.60;51.30
9446;DHT22;4761;49.490;10.908;2023-05-14T04:32:27;19.70;51.40
9446;DHT22;4761;49.490;10.908;2023-05-14T04:34:52;19.60;51.30
9446;DHT22;4761;49.490;10.908;2023-05-14T04:37:18;19.70;51.40
9446;DHT22;4761;49.490;10.908;2023-05-14T04:39:43;19.70;51.50
9446;DHT22;4761;49.490;10.908;2023-05-14T04:42:09;19.60;51.40
9446;DHT22;4761;49.490;10.908;2023-05-14T04:44:35;19.70;51.50
9446;DHT22;4761;49.490;10.908;2023-05-14T04:47:02;19.70;51.40
9446;DHT22;4761;49.490;10.908;2023-05-14T04:49:27;19.70;51.50
9446;DHT22;4761;49.490;10.908;2023-05-14T04:51:53;19.70;51.50
9446;DHT22;4761;49.490;10.908;2023-05-14T04:54:19;19.60;51.40
9446;DHT22;4761;49.490;10.908;2023-05-14T04:56:44;19.70;51.50
9446;DHT22;4761;49.490;10.908;2023-05-14T04:59:10;19.70;51.50
9446;DHT22;4761;49.490;10.908;2023-05-14T05:01:35;19.70;51.50
9446;DHT22;4761;49.490;10.908;2023-05-14T05:04:01;19.70;51.50
9446;DHT22;4761;49.490;10.908;2023-05-14T05:06:27;19.70;51.50
9446;DHT22;4761;49.490;10.908;2023-05-14T05:08:52;19.70;51.50
9446;DHT22;4761;49.490;10.908;2023-05-14T05:11:18;19.60;51.50
9446;DHT22;4761;49.490;10.908;2023-05-14T05:13:43;19.70;51.60
9446;DHT22;4761;49.490;10.908;2023-05-14T05:16:09;19.70;51.60
9446;DHT22;4761;49.490;10.908;2023-05-14T05:18:34;19.70;51.60
9446;DHT22;4761;49.490;10.908;2023-05-14T05:21:00;19.70;51.70
9446;DHT22;4761;49.490;10.908;2023-05-14T05:23:25;19.70;51.60
9446;DHT22;4761;49.490;10.908;2023-05-14T05:25:51;19.70;51.70
9446;DHT22;4761;49.490;10.908;2023-05-14T05:28:16;19.70;51.70
9446;DHT22;4761;49.490;10.908;2023-05-14T05:30:42;19.70;51.70
9446;DHT22;4761;49.490;10.908;2023-05-14T05:33:10;19.70;51.70
9446;DHT22;4761;49.490;10.908;2023-05-14T05:35:35;19.70;51.70
9446;DHT22;4761;49.490;10.908;2023-05-14T05:38:01;19.70;51.70
9446;DHT22;4761;49.490;10.908;2023-05-14T05:40:27;19.70;51.60
9446;DHT22;4761;49.490;10.908;2023-05-14T05:42:52;19.70;51.70
9446;DHT22;4761;49.490;10.908;2023-05-14T05:45:18;19.70;51.70
9446;DHT22;4761;49.490;10.908;2023-05-14T05:47:43;19.70;51.50
9446;DHT22;4761;49.490;10.908;2023-05-14T05:50:10;19.60;51.30
9446;DHT22;4761;49.490;10.908;2023-05-14T05:52:35;19.60;51.50
9446;DHT22;4761;49.490;10.908;2023-05-14T05:55:01;19.50;51.70
9446;DHT22;4761;49.490;10.908;2023-05-14T05:57:26;19.50;51.70
9446;DHT22;4761;49.490;10.908;2023-05-14T05:59:52;19.50;51.70
9446;DHT22;4761;49.490;10.908;2023-05-14T06:02:18;19.60;51.60
9446;DHT22;4761;49.490;10.908;2023-05-14T06:04:44;19.70;51.50
9446;DHT22;4761;49.490;10.908;2023-05-14T06:07:10;19.70;51.30
9446;DHT22;4761;49.490;10.908;2023-05-14T06:09:35;19.80;51.10
9446;DHT22;4761;49.490;10.908;2023-05-14T06:12:01;19.80;50.90
9446;DHT22;4761;49.490;10.908;2023-05-14T06:14:26;19.90;50.70
9446;DHT22;4761;49.490;10.908;2023-05-14T06:16:52;19.90;50.40
9446;DHT22;4761;49.490;10.908;2023-05-14T06:19:17;20.00;50.40
9446;DHT22;4761;49.490;10.908;2023-05-14T06:21:43;20.10;50.20
9446;DHT22;4761;49.490;10.908;2023-05-14T06:24:08;20.10;50.10
9446;DHT22;4761;49.490;10.908;2023-05-14T06:26:34;20.20;50.00
9446;DHT22;4761;49.490;10.908;2023-05-14T06:29:00;20.20;50.00
9446;DHT22;4761;49.490;10.908;2023-05-14T06:31:25;20.30;50.00
9446;DHT22;4761;49.490;10.908;2023-05-14T06:33:51;20.30;49.90
9446;DHT22;4761;49.490;10.908;2023-05-14T06:36:16;20.30;49.80
9446;DHT22;4761;49.490;10.908;2023-05-14T06:38:42;20.30;49.60
9446;DHT22;4761;49.490;10.908;2023-05-14T06:41:07;20.40;49.60
9446;DHT22;4761;49.490;10.908;2023-05-14T06:43:33;20.40;49.50
9446;DHT22;4761;49.490;10.908;2023-05-14T06:45:58;20.40;49.50
9446;DHT22;4761;49.490;10.908;2023-05-14T06:48:24;20.40;49.50
9446;DHT22;4761;49.490;10.908;2023-05-14T06:50:51;20.50;49.50
9446;DHT22;4761;49.490;10.908;2023-05-14T06:53:17;20.50;49.40
9446;DHT22;4761;49.490;10.908;2023-05-14T06:55:43;20.50;49.30
9446;DHT22;4761;49.490;10.908;2023-05-14T06:58:09;20.50;49.30
9446;DHT22;4761;49.490;10.908;2023-05-14T07:00:34;20.50;49.20
9446;DHT22;4761;49.490;10.908;2023-05-14T07:03:00;20.50;49.10
9446;DHT22;4761;49.490;10.908;2023-05-14T07:05:25;20.50;49.10
9446;DHT22;4761;49.490;10.908;2023-05-14T07:07:51;20.60;49.10
9446;DHT22;4761;49.490;10.908;2023-05-14T07:10:16;20.50;49.00
9446;DHT22;4761;49.490;10.908;2023-05-14T07:12:42;20.50;48.90
9446;DHT22;4761;49.490;10.908;2023-05-14T07:15:08;20.50;48.80
9446;DHT22;4761;49.490;10.908;2023-05-14T07:17:34;20.50;48.80
9446;DHT22;4761;49.490;10.908;2023-05-14T07:19:59;20.60;48.90
9446;DHT22;4761;49.490;10.908;2023-05-14T07:22:25;20.60;48.80
9446;DHT22;4761;49.490;10.908;2023-05-14T07:24:50;20.60;48.90
9446;DHT22;4761;49.490;10.908;2023-05-14T07:27:16;20.60;48.80
9446;DHT22;4761;49.490;10.908;2023-05-14T07:29:42;20.60;48.80
9446;DHT22;4761;49.490;10.908;2023-05-14T07:32:08;20.60;48.80
9446;DHT22;4761;49.490;10.908;2023-05-14T07:34:33;20.60;48.80
9446;DHT22;4761;49.490;10.908;2023-05-14T07:36:59;20.60;48.80
9446;DHT22;4761;49.490;10.908;2023-05-14T07:39:25;20.60;48.80
9446;DHT22;4761;49.490;10.908;2023-05-14T07:41:50;20.60;48.80
9446;DHT22;4761;49.490;10.908;2023-05-14T07:44:16;20.60;48.80
9446;DHT22;4761;49.490;10.908;2023-05-14T07:46:42;20.60;48.80
9446;DHT22;4761;49.490;10.908;2023-05-14T07:49:07;20.60;48.80
9446;DHT22;4761;49.490;10.908;2023-05-14T07:51:33;20.60;48.80
9446;DHT22;4761;49.490;10.908;2023-05-14T07:53:58;20.60;48.70
9446;DHT22;4761;49.490;10.908;2023-05-14T07:56:24;20.70;48.80
9446;DHT22;4761;49.490;10.908;2023-05-14T07:58:50;20.60;48.80
9446;DHT22;4761;49.490;10.908;2023-05-14T08:01:16;20.70;48.80
9446;DHT22;4761;49.490;10.908;2023-05-14T08:03:41;20.80;48.50
9446;DHT22;4761;49.490;10.908;2023-05-14T08:06:07;20.80;48.30
9446;DHT22;4761;49.490;10.908;2023-05-14T08:08:32;20.70;48.30
9446;DHT22;4761;49.490;10.908;2023-05-14T08:10:58;20.60;48.50
9446;DHT22;4761;49.490;10.908;2023-05-14T08:13:24;20.60;48.80
9446;DHT22;4761;49.490;10.908;2023-05-14T08:15:49;20.50;49.00
9446;DHT22;4761;49.490;10.908;2023-05-14T08:18:15;20.40;49.10
9446;DHT22;4761;49.490;10.908;2023-05-14T08:20:41;20.30;49.10
9446;DHT22;4761;49.490;10.908;2023-05-14T08:23:06;20.30;49.30
9446;DHT22;4761;49.490;10.908;2023-05-14T08:25:32;20.30;49.40
9446;DHT22;4761;49.490;10.908;2023-05-14T08:27:58;20.20;49.50
9446;DHT22;4761;49.490;10.908;2023-05-14T08:30:24;20.20;49.60
9446;DHT22;4761;49.490;10.908;2023-05-14T08:32:50;20.20;49.70
9446;DHT22;4761;49.490;10.908;2023-05-14T08:35:16;20.20;49.70
9446;DHT22;4761;49.490;10.908;2023-05-14T08:37:42;20.20;49.70
9446;DHT22;4761;49.490;10.908;2023-05-14T08:40:08;20.20;49.80
9446;DHT22;4761;49.490;10.908;2023-05-14T08:42:35;20.10;49.90
9446;DHT22;4761;49.490;10.908;2023-05-14T08:45:03;20.10;49.90
9446;DHT22;4761;49.490;10.908;2023-05-14T08:47:30;20.10;49.90
9446;DHT22;4761;49.490;10.908;2023-05-14T08:50:03;20.10;50.00
9446;DHT22;4761;49.490;10.908;2023-05-14T08:52:30;20.10;50.00
9446;DHT22;4761;49.490;10.908;2023-05-14T08:54:57;20.10;50.00
9446;DHT22;4761;49.490;10.908;2023-05-14T08:57:24;20.10;50.10
9446;DHT22;4761;49.490;10.908;2023-05-14T08:59:51;20.00;50.10
9446;DHT22;4761;49.490;10.908;2023-05-14T09:02:19;20.00;50.10
9446;DHT22;4761;49.490;10.908;2023-05-14T09:04:47;20.10;50.30
9446;DHT22;4761;49.490;10.908;2023-05-14T09:07:14;20.00;50.20
9446;DHT22;4761;49.490;10.908;2023-05-14T09:09:40;20.00;50.80
9446;DHT22;4761;49.490;10.908;2023-05-14T09:12:06;20.00;50.20
9446;DHT22;4761;49.490;10.908;2023-05-14T09:14:32;20.00;50.20
9446;DHT22;4761;49.490;10.908;2023-05-14T09:16:57;20.00;50.20
9446;DHT22;4761;49.490;10.908;2023-05-14T09:19:23;20.00;50.30
9446;DHT22;4761;49.490;10.908;2023-05-14T09:21:50;20.00;50.40
9446;DHT22;4761;49.490;10.908;2023-05-14T09:24:26;20.00;50.40
9446;DHT22;4761;49.490;10.908;2023-05-14T09:26:56;20.00;50.50
9446;DHT22;4761;49.490;10.908;2023-05-14T09:29:29;20.00;50.50
9446;DHT22;4761;49.490;10.908;2023-05-14T09:31:56;20.00;50.50
9446;DHT22;4761;49.490;10.908;2023-05-14T09:34:26;20.00;50.60
9446;DHT22;4761;49.490;10.908;2023-05-14T09:36:56;20.00;50.60
9446;DHT22;4761;49.490;10.908;2023-05-14T09:39:24;20.00;50.70
9446;DHT22;4761;49.490;10.908;2023-05-14T09:41:50;20.00;50.80
9446;DHT22;4761;49.490;10.908;2023-05-14T09:44:19;20.00;50.80
9446;DHT22;4761;49.490;10.908;2023-05-14T09:46:46;20.00;50.80
9446;DHT22;4761;49.490;10.908;2023-05-14T09:49:12;20.00;50.90
9446;DHT22;4761;49.490;10.908;2023-05-14T09:51:38;20.00;51.60
9446;DHT22;4761;49.490;10.908;2023-05-14T09:54:04;20.00;51.00
9446;DHT22;4761;49.490;10.908;2023-05-14T09:56:31;20.00;50.90
9446;DHT22;4761;49.490;10.908;2023-05-14T09:58:57;20.00;50.90
9446;DHT22;4761;49.490;10.908;2023-05-14T10:01:23;20.00;50.80
9446;DHT22;4761;49.490;10.908;2023-05-14T10:03:49;20.00;50.80
9446;DHT22;4761;49.490;10.908;2023-05-14T10:06:18;20.00;50.80
9446;DHT22;4761;49.490;10.908;2023-05-14T10:08:48;20.00;50.90
9446;DHT22;4761;49.490;10.908;2023-05-14T10:11:23;20.00;50.90
9446;DHT22;4761;49.490;10.908;2023-05-14T10:16:28;20.00;50.90
9446;DHT22;4761;49.490;10.908;2023-05-14T10:19:01;20.00;51.10
9446;DHT22;4761;49.490;10.908;2023-05-14T10:21:31;20.10;51.10
9446;DHT22;4761;49.490;10.908;2023-05-14T10:23:59;20.00;51.00
9446;DHT22;4761;49.490;10.908;2023-05-14T10:26:24;20.00;51.20
9446;DHT22;4761;49.490;10.908;2023-05-14T10:28:50;20.00;51.20
9446;DHT22;4761;49.490;10.908;2023-05-14T10:31:16;20.10;51.30
9446;DHT22;4761;49.490;10.908;2023-05-14T10:33:49;20.10;51.30
9446;DHT22;4761;49.490;10.908;2023-05-14T10:36:19;20.00;51.20
9446;DHT22;4761;49.490;10.908;2023-05-14T10:38:45;20.10;51.40
9446;DHT22;4761;49.490;10.908;2023-05-14T10:41:12;20.10;52.00
9446;DHT22;4761;49.490;10.908;2023-05-14T10:43:40;20.10;51.50
9446;DHT22;4761;49.490;10.908;2023-05-14T10:46:07;20.10;51.50
9446;DHT22;4761;49.490;10.908;2023-05-14T10:48:34;20.10;51.50
9446;DHT22;4761;49.490;10.908;2023-05-14T10:51:00;20.10;51.60
9446;DHT22;4761;49.490;10.908;2023-05-14T10:53:42;20.10;51.70
9446;DHT22;4761;49.490;10.908;2023-05-14T10:56:10;20.10;51.70
9446;DHT22;4761;49.490;10.908;2023-05-14T10:58:43;20.10;51.60
9446;DHT22;4761;49.490;10.908;2023-05-14T11:01:10;20.10;51.40
9446;DHT22;4761;49.490;10.908;2023-05-14T11:03:43;20.10;51.30
9446;DHT22;4761;49.490;10.908;2023-05-14T11:06:10;20.10;51.30
9446;DHT22;4761;49.490;10.908;2023-05-14T11:08:37;20.10;51.30
9446;DHT22;4761;49.490;10.908;2023-05-14T11:11:03;20.10;51.30
9446;DHT22;4761;49.490;10.908;2023-05-14T11:13:29;20.10;51.20
9446;DHT22;4761;49.490;10.908;2023-05-14T11:15:55;20.10;51.20
9446;DHT22;4761;49.490;10.908;2023-05-14T11:18:28;20.10;51.10
9446;DHT22;4761;49.490;10.908;2023-05-14T11:20:58;20.10;51.10
9446;DHT22;4761;49.490;10.908;2023-05-14T11:23:23;20.10;51.10
9446;DHT22;4761;49.490;10.908;2023-05-14T11:25:52;20.10;51.20
9446;DHT22;4761;49.490;10.908;2023-05-14T11:28:22;20.20;51.30
9446;DHT22;4761;49.490;10.908;2023-05-14T11:30:52;20.20;51.10
9446;DHT22;4761;49.490;10.908;2023-05-14T11:33:18;20.20;51.10
9446;DHT22;4761;49.490;10.908;2023-05-14T11:35:44;20.30;51.10
9446;DHT22;4761;49.490;10.908;2023-05-14T11:38:20;20.30;51.00
9446;DHT22;4761;49.490;10.908;2023-05-14T11:40:54;20.30;51.00
9446;DHT22;4761;49.490;10.908;2023-05-14T11:43:20;20.30;51.10
9446;DHT22;4761;49.490;10.908;2023-05-14T11:45:53;20.30;51.20
9446;DHT22;4761;49.490;10.908;2023-05-14T11:48:19;20.30;51.30
9446;DHT22;4761;49.490;10.908;2023-05-14T11:50:49;20.30;51.40
9446;DHT22;4761;49.490;10.908;2023-05-14T11:53:19;20.30;51.40
9446;DHT22;4761;49.490;10.908;2023-05-14T11:55:45;20.30;51.50
9446;DHT22;4761;49.490;10.908;2023-05-14T11:58:11;20.30;51.50
9446;DHT22;4761;49.490;10.908;2023-05-14T12:00:37;20.30;51.50
9446;DHT22;4761;49.490;10.908;2023-05-14T12:03:03;20.30;51.50
9446;DHT22;4761;49.490;10.908;2023-05-14T12:05:29;20.30;51.50
9446;DHT22;4761;49.490;10.908;2023-05-14T12:07:54;20.30;51.70
9446;DHT22;4761;49.490;10.908;2023-05-14T12:10:20;20.30;51.70
9446;DHT22;4761;49.490;10.908;2023-05-14T12:12:47;20.30;51.60
9446;DHT22;4761;49.490;10.908;2023-05-14T12:15:13;20.30;51.70
9446;DHT22;4761;49.490;10.908;2023-05-14T12:17:40;20.30;51.80
9446;DHT22;4761;49.490;10.908;2023-05-14T12:20:09;20.30;51.70
9446;DHT22;4761;49.490;10.908;2023-05-14T12:22:35;20.30;51.80
9446;DHT22;4761;49.490;10.908;2023-05-14T12:25:01;20.30;51.80
9446;DHT22;4761;49.490;10.908;2023-05-14T12:27:28;20.30;51.80
9446;DHT22;4761;49.490;10.908;2023-05-14T12:29:59;20.30;52.00
9446;DHT22;4761;49.490;10.908;2023-05-14T12:32:25;20.30;51.90
9446;DHT22;4761;49.490;10.908;2023-05-14T12:34:51;20.30;52.00
9446;DHT22;4761;49.490;10.908;2023-05-14T12:37:16;20.30;52.10
9446;DHT22;4761;49.490;10.908;2023-05-14T12:39:43;20.30;52.10
9446;DHT22;4761;49.490;10.908;2023-05-14T12:42:08;20.30;52.10
9446;DHT22;4761;49.490;10.908;2023-05-14T12:44:34;20.30;52.10
9446;DHT22;4761;49.490;10.908;2023-05-14T12:46:59;20.30;52.20
9446;DHT22;4761;49.490;10.908;2023-05-14T12:49:25;20.30;52.80
9446;DHT22;4761;49.490;10.908;2023-05-14T12:51:50;20.30;52.20
9446;DHT22;4761;49.490;10.908;2023-05-14T12:54:16;20.30;52.40
9446;DHT22;4761;49.490;10.908;2023-05-14T12:56:41;20.30;52.30
9446;DHT22;4761;49.490;10.908;2023-05-14T12:59:07;20.30;52.30
9446;DHT22;4761;49.490;10.908;2023-05-14T13:01:33;20.30;52.20
9446;DHT22;4761;49.490;10.908;2023-05-14T13:03:59;20.30;52.30
9446;DHT22;4761;49.490;10.908;2023-05-14T13:06:24;20.30;52.20
9446;DHT22;4761;49.490;10.908;2023-05-14T13:08:50;20.30;52.20
9446;DHT22;4761;49.490;10.908;2023-05-14T13:11:15;20.30;52.20
9446;DHT22;4761;49.490;10.908;2023-05-14T13:13:41;20.30;52.50
9446;DHT22;4761;49.490;10.908;2023-05-14T13:16:06;20.40;52.50
9446;DHT22;4761;49.490;10.908;2023-05-14T13:18:32;20.30;52.30
9446;DHT22;4761;49.490;10.908;2023-05-14T13:20:57;20.40;52.40
9446;DHT22;4761;49.490;10.908;2023-05-14T13:23:23;20.40;52.40
9446;DHT22;4761;49.490;10.908;2023-05-14T13:25:48;20.40;52.50
9446;DHT22;4761;49.490;10.908;2023-05-14T13:28:15;20.40;52.50
9446;DHT22;4761;49.490;10.908;2023-05-14T13:30:40;20.40;52.50
9446;DHT22;4761;49.490;10.908;2023-05-14T13:33:06;20.40;52.70
9446;DHT22;4761;49.490;10.908;2023-05-14T13:35:32;20.40;52.60
9446;DHT22;4761;49.490;10.908;2023-05-14T13:37:58;20.40;52.60
9446;DHT22;4761;49.490;10.908;2023-05-14T13:40:24;20.30;52.40
9446;DHT22;4761;49.490;10.908;2023-05-14T13:42:49;20.30;52.30
9446;DHT22;4761;49.490;10.908;2023-05-14T13:45:15;20.30;52.40
9446;DHT22;4761;49.490;10.908;2023-05-14T13:47:40;20.30;52.50
9446;DHT22;4761;49.490;10.908;2023-05-14T13:50:06;20.30;52.50
9446;DHT22;4761;49.490;10.908;2023-05-14T13:52:32;20.30;52.40
9446;DHT22;4761;49.490;10.908;2023-05-14T13:54:57;20.30;52.40
9446;DHT22;4761;49.490;10.908;2023-05-14T13:57:23;20.40;52.40
9446;DHT22;4761;49.490;10.908;2023-05-14T13:59:48;20.40;52.50
9446;DHT22;4761;49.490;10.908;2023-05-14T14:02:14;20.40;52.50
9446;DHT22;4761;49.490;10.908;2023-05-14T14:04:40;20.40;52.50
9446;DHT22;4761;49.490;10.908;2023-05-14T14:07:05;20.40;52.60
9446;DHT22;4761;49.490;10.908;2023-05-14T14:09:31;20.40;52.50
9446;DHT22;4761;49.490;10.908;2023-05-14T14:12:01;20.40;52.40
9446;DHT22;4761;49.490;10.908;2023-05-14T14:14:27;20.40;52.40
9446;DHT22;4761;49.490;10.908;2023-05-14T14:16:53;20.40;52.30
9446;DHT22;4761;49.490;10.908;2023-05-14T14:19:18;20.50;52.20
9446;DHT22;4761;49.490;10.908;2023-05-14T14:21:44;20.50;52.20
9446;DHT22;4761;49.490;10.908;2023-05-14T14:24:09;20.50;52.20
9446;DHT22;4761;49.490;10.908;2023-05-14T14:26:35;20.50;52.20
9446;DHT22;4761;49.490;10.908;2023-05-14T14:29:01;20.50;52.20
9446;DHT22;4761;49.490;10.908;2023-05-14T14:31:26;20.50;52.20
9446;DHT22;4761;49.490;10.908;2023-05-14T14:33:52;20.50;52.10
9446;DHT22;4761;49.490;10.908;2023-05-14T14:36:17;20.50;52.00
9446;DHT22;4761;49.490;10.908;2023-05-14T14:38:43;20.50;51.90
9446;DHT22;4761;49.490;10.908;2023-05-14T14:41:08;20.50;51.80
9446;DHT22;4761;49.490;10.908;2023-05-14T14:43:35;20.50;51.80
9446;DHT22;4761;49.490;10.908;2023-05-14T14:46:01;20.60;51.60
9446;DHT22;4761;49.490;10.908;2023-05-14T14:48:31;20.50;51.40
9446;DHT22;4761;49.490;10.908;2023-05-14T14:51:07;20.60;51.30
9446;DHT22;4761;49.490;10.908;2023-05-14T14:53:33;20.50;51.00
9446;DHT22;4761;49.490;10.908;2023-05-14T14:56:00;20.60;51.00
9446;DHT22;4761;49.490;10.908;2023-05-14T14:58:26;20.60;51.00
9446;DHT22;4761;49.490;10.908;2023-05-14T15:00:53;20.50;50.80
9446;DHT22;4761;49.490;10.908;2023-05-14T15:03:20;20.60;51.10
9446;DHT22;4761;49.490;10.908;2023-05-14T15:05:45;20.50;50.70
9446;DHT22;4761;49.490;10.908;2023-05-14T15:08:11;20.50;50.70
9446;DHT22;4761;49.490;10.908;2023-05-14T15:10:37;20.50;50.80
9446;DHT22;4761;49.490;10.908;2023-05-14T15:13:03;20.50;50.90
9446;DHT22;4761;49.490;10.908;2023-05-14T15:15:29;20.50;50.90
9446;DHT22;4761;49.490;10.908;2023-05-14T15:17:56;20.50;50.90
9446;DHT22;4761;49.490;10.908;2023-05-14T15:20:21;20.50;50.90
9446;DHT22;4761;49.490;10.908;2023-05-14T15:22:47;20.50;50.90
9446;DHT22;4761;49.490;10.908;2023-05-14T15:25:17;20.50;50.80
9446;DHT22;4761;49.490;10.908;2023-05-14T15:27:42;20.50;50.80
9446;DHT22;4761;49.490;10.908;2023-05-14T15:30:08;20.60;50.70
9446;DHT22;4761;49.490;10.908;2023-05-14T15:32:34;20.50;50.60
9446;DHT22;4761;49.490;10.908;2023-05-14T15:35:00;20.50;50.70
9446;DHT22;4761;49.490;10.908;2023-05-14T15:37:25;20.50;50.60
9446;DHT22;4761;49.490;10.908;2023-05-14T15:39:51;20.50;50.60
9446;DHT22;4761;49.490;10.908;2023-05-14T15:42:16;20.50;50.70
9446;DHT22;4761;49.490;10.908;2023-05-14T15:44:42;20.50;50.70